createdAt,value
2018-09-05T00:01:26.719Z,53.03
2018-09-05T00:03:55.448Z,54.37
2018-09-05T00:06:24.088Z,53.97
2018-09-05T00:08:52.921Z,54.53
2018-09-05T00:11:21.580Z,53.80
2018-09-05T00:13:50.261Z,53.60
2018-09-05T00:16:19.479Z,56.17
2018-09-05T00:18:48.223Z,55.97
2018-09-05T00:21:17.122Z,52.73
2018-09-05T00:23:45.812Z,54.77
2018-09-05T00:26:14.548Z,53.80
2018-09-05T00:28:43.212Z,55.33
2018-09-05T00:31:12.252Z,53.37
2018-09-05T00:33:41.081Z,50.27
2018-09-05T00:36:09.743Z,51.00
2018-09-05T00:38:38.465Z,52.70
2018-09-05T00:41:07.264Z,53.20
2018-09-05T00:43:35.917Z,51.23
2018-09-05T00:46:04.696Z,49.63
2018-09-05T00:48:33.367Z,53.80
2018-09-05T00:51:02.084Z,51.60
2018-09-05T00:53:31.045Z,54.47
2018-09-05T00:55:59.693Z,54.60
2018-09-05T00:58:28.399Z,52.30
2018-09-05T01:00:57.074Z,54.43
2018-09-05T01:03:25.783Z,53.60
2018-09-05T01:05:54.468Z,51.30
2018-09-05T01:08:23.170Z,57.93
2018-09-05T01:10:51.878Z,54.73
2018-09-05T01:13:20.537Z,57.07
2018-09-05T01:15:49.178Z,59.10
2018-09-05T01:18:17.863Z,62.27
2018-09-05T01:20:46.554Z,69.47
2018-09-05T01:23:15.217Z,79.90
2018-09-05T01:25:43.914Z,79.10
2018-09-05T01:28:12.617Z,81.70
2018-09-05T01:30:41.286Z,77.90
2018-09-05T01:33:09.957Z,72.87
2018-09-05T01:35:38.655Z,72.03
2018-09-05T01:38:07.468Z,67.13
2018-09-05T01:40:36.128Z,71.17
2018-09-05T01:43:04.968Z,67.30
2018-09-05T01:45:33.646Z,66.67
2018-09-05T01:48:02.330Z,72.27
2018-09-05T01:50:36.478Z,65.03
2018-09-05T01:53:05.221Z,65.80
2018-09-05T01:55:34.021Z,61.17
2018-09-05T01:58:02.875Z,68.13
2018-09-05T02:00:33.724Z,63.27
2018-09-05T02:03:02.713Z,66.77
2018-09-05T02:05:31.445Z,65.13
2018-09-05T02:08:01.135Z,66.93
2018-09-05T02:10:30.569Z,64.63
2018-09-05T02:12:59.359Z,62.10
2018-09-05T02:15:28.039Z,63.97
2018-09-05T02:17:56.809Z,62.37
2018-09-05T02:20:25.501Z,62.40
2018-09-05T02:22:54.237Z,64.33
2018-09-05T02:25:22.936Z,65.33
2018-09-05T02:27:51.722Z,63.93
2018-09-05T02:30:20.484Z,60.20
2018-09-05T02:32:49.220Z,66.60
2018-09-05T02:35:17.903Z,63.17
2018-09-05T02:37:46.658Z,63.17
2018-09-05T02:40:15.397Z,60.73
2018-09-05T02:42:44.057Z,62.03
2018-09-05T02:45:12.721Z,58.87
2018-09-05T02:47:41.406Z,59.10
2018-09-05T02:50:10.115Z,59.83
2018-09-05T02:52:38.812Z,62.87
2018-09-05T02:55:07.511Z,61.50
2018-09-05T02:57:36.138Z,61.20
2018-09-05T03:00:04.813Z,60.57
2018-09-05T03:02:33.437Z,61.90
2018-09-05T03:05:02.095Z,59.27
2018-09-05T03:07:30.811Z,55.40
2018-09-05T03:09:59.599Z,61.50
2018-09-05T03:12:28.352Z,64.07
2018-09-05T03:14:57.000Z,60.03
2018-09-05T03:17:25.662Z,65.07
2018-09-05T03:19:54.394Z,60.13
2018-09-05T03:22:23.034Z,59.93
2018-09-05T03:24:51.764Z,57.87
2018-09-05T03:27:20.426Z,61.60
2018-09-05T03:29:49.141Z,60.80
2018-09-05T03:32:17.959Z,59.93
2018-09-05T03:34:46.524Z,56.37
2018-09-05T03:37:15.266Z,62.57
2018-09-05T03:39:43.915Z,59.57
2018-09-05T03:42:12.623Z,62.57
2018-09-05T03:44:41.325Z,58.97
2018-09-05T03:47:10.041Z,58.13
2018-09-05T03:49:38.712Z,61.53
2018-09-05T03:52:07.375Z,58.47
2018-09-05T03:54:36.072Z,60.70
2018-09-05T03:57:04.851Z,64.03
2018-09-05T03:59:33.627Z,58.43
2018-09-05T04:02:02.317Z,61.43
2018-09-05T04:04:31.004Z,56.57
2018-09-05T04:06:59.669Z,60.97
2018-09-05T04:09:28.348Z,56.93
2018-09-05T04:11:57.032Z,60.33
2018-09-05T04:14:25.680Z,60.17
2018-09-05T04:16:54.352Z,59.53
2018-09-05T04:19:23.185Z,60.90
2018-09-05T04:21:51.964Z,63.60
2018-09-05T04:24:20.662Z,61.17
2018-09-05T04:26:49.349Z,61.07
2018-09-05T04:29:18.072Z,58.77
2018-09-05T04:31:46.806Z,64.00
2018-09-05T04:34:15.628Z,60.87
2018-09-05T04:36:44.332Z,64.37
2018-09-05T04:39:13.099Z,62.67
2018-09-05T04:41:41.887Z,66.03
2018-09-05T04:44:10.626Z,61.43
2018-09-05T04:46:39.227Z,59.80
2018-09-05T04:49:07.947Z,61.17
2018-09-05T04:51:36.681Z,64.33
2018-09-05T04:54:06.392Z,62.77
2018-09-05T04:56:35.186Z,63.33
2018-09-05T04:59:04.312Z,61.90
2018-09-05T05:01:33.048Z,65.30
2018-09-05T05:04:01.909Z,66.03
2018-09-05T05:06:30.631Z,60.47
2018-09-05T05:08:59.233Z,59.07
2018-09-05T05:11:28.015Z,59.87
2018-09-05T05:13:56.705Z,58.77
2018-09-05T05:16:25.442Z,59.10
2018-09-05T05:18:54.238Z,59.20
2018-09-05T05:21:22.977Z,62.07
2018-09-05T05:23:52.618Z,58.33
2018-09-05T05:26:21.429Z,59.73
2018-09-05T05:28:50.166Z,59.20
2018-09-05T05:31:18.898Z,60.67
2018-09-05T05:33:47.531Z,57.60
2018-09-05T05:36:16.726Z,57.37
2018-09-05T05:38:46.183Z,57.03
2018-09-05T05:41:15.093Z,56.80
2018-09-05T05:43:43.967Z,58.87
2018-09-05T05:46:13.000Z,57.90
2018-09-05T05:48:41.659Z,56.17
2018-09-05T05:51:10.472Z,55.93
2018-09-05T05:53:39.507Z,52.73
2018-09-05T05:56:08.249Z,53.13
2018-09-05T05:58:37.386Z,56.77
2018-09-05T06:01:07.077Z,54.33
2018-09-05T06:03:35.744Z,56.07
2018-09-05T06:06:04.461Z,55.13
2018-09-05T06:08:33.624Z,53.33
2018-09-05T06:11:02.324Z,55.23
2018-09-05T06:13:31.089Z,53.97
2018-09-05T06:16:00.357Z,58.70
2018-09-05T06:18:28.987Z,53.93
2018-09-05T06:20:57.681Z,58.37
2018-09-05T06:23:26.333Z,53.10
2018-09-05T06:25:55.037Z,57.77
2018-09-05T06:28:23.716Z,55.90
2018-09-05T06:30:52.424Z,54.77
2018-09-05T06:33:21.619Z,55.23
2018-09-05T06:35:50.316Z,57.77
2018-09-05T06:38:19.108Z,53.47
2018-09-05T06:40:47.828Z,56.10
2018-09-05T06:43:16.486Z,53.47
2018-09-05T06:45:45.146Z,52.33
2018-09-05T06:48:13.835Z,54.17
2018-09-05T06:50:42.476Z,56.50
2018-09-05T06:53:11.122Z,60.53
2018-09-05T06:55:39.770Z,53.43
2018-09-05T06:58:08.674Z,58.73
2018-09-05T07:00:37.362Z,76.00
2018-09-05T07:03:06.069Z,54.20
2018-09-05T07:05:34.750Z,56.30
2018-09-05T07:08:03.425Z,55.10
2018-09-05T07:10:32.115Z,52.83
2018-09-05T07:13:00.765Z,58.90
2018-09-05T07:15:29.453Z,58.70
2018-09-05T07:17:58.135Z,59.33
2018-09-05T07:20:26.743Z,53.40
2018-09-05T07:22:55.536Z,56.70
2018-09-05T07:25:24.169Z,49.97
2018-09-05T07:27:52.926Z,53.90
2018-09-05T07:30:21.651Z,51.80
2018-09-05T07:32:50.227Z,52.87
2018-09-05T07:35:18.923Z,49.87
2018-09-05T07:37:47.705Z,50.67
2018-09-05T07:40:16.443Z,48.73
2018-09-05T07:42:45.088Z,54.20
2018-09-05T07:45:13.756Z,58.13
2018-09-05T07:47:42.401Z,59.07
2018-09-05T07:50:11.141Z,55.97
2018-09-05T07:52:39.798Z,59.77
2018-09-05T07:55:08.436Z,57.23
2018-09-05T07:57:37.108Z,59.23
2018-09-05T08:00:06.372Z,56.70
2018-09-05T08:02:35.119Z,59.40
2018-09-05T08:05:03.854Z,54.50
2018-09-05T08:07:32.474Z,52.47
2018-09-05T08:10:01.184Z,54.40
2018-09-05T08:12:29.915Z,52.43
2018-09-05T08:14:58.619Z,54.00
2018-09-05T08:17:28.211Z,53.47
2018-09-05T08:19:57.007Z,51.00
2018-09-05T08:22:25.743Z,49.87
2018-09-05T08:24:54.513Z,53.93
2018-09-05T08:27:23.838Z,50.90
2018-09-05T08:29:53.455Z,47.57
2018-09-05T08:32:22.336Z,49.20
2018-09-05T08:34:51.226Z,51.87
2018-09-05T08:37:19.883Z,49.73
2018-09-05T08:39:48.446Z,43.80
2018-09-05T08:42:17.461Z,46.30
2018-09-05T08:44:46.328Z,50.60
2018-09-05T08:47:14.824Z,50.97
2018-09-05T08:49:43.529Z,48.77
2018-09-05T08:52:12.179Z,49.63
2018-09-05T08:54:40.839Z,50.43
2018-09-05T08:57:09.512Z,48.20
2018-09-05T08:59:38.213Z,44.47
2018-09-05T09:02:06.902Z,46.80
2018-09-05T09:04:35.506Z,45.27
2018-09-05T09:07:04.138Z,46.03
2018-09-05T09:09:32.784Z,46.67
2018-09-05T09:12:01.804Z,46.00
2018-09-05T09:14:30.440Z,46.10
2018-09-05T09:16:59.072Z,47.47
2018-09-05T09:19:27.761Z,43.43
2018-09-05T09:21:56.343Z,43.47
2018-09-05T09:24:25.065Z,44.23
2018-09-05T09:26:53.669Z,49.73
2018-09-05T09:29:22.337Z,45.20
2018-09-05T09:31:50.947Z,46.87
2018-09-05T09:34:19.611Z,42.87
2018-09-05T09:36:48.795Z,42.57
2018-09-05T09:39:17.440Z,44.60
2018-09-05T09:41:46.072Z,41.67
2018-09-05T09:44:14.685Z,43.80
2018-09-05T09:46:43.434Z,43.93
2018-09-05T09:49:11.946Z,44.50
2018-09-05T09:51:40.572Z,46.00
2018-09-05T09:54:09.160Z,42.07
2018-09-05T09:56:37.855Z,43.33
2018-09-05T09:59:06.560Z,42.60
2018-09-05T10:01:40.518Z,40.77
2018-09-05T10:04:14.463Z,44.43
2018-09-05T10:06:47.331Z,45.33
2018-09-05T10:09:21.333Z,43.73
2018-09-05T10:11:55.270Z,43.07
2018-09-05T10:14:29.143Z,43.67
2018-09-05T10:17:03.265Z,41.10
2018-09-05T10:19:32.109Z,41.47
2018-09-05T10:22:00.775Z,43.40
2018-09-05T10:24:29.498Z,44.00
2018-09-05T10:26:58.223Z,42.20
2018-09-05T10:29:26.827Z,40.87
2018-09-05T10:31:56.642Z,38.47
2018-09-05T10:34:26.792Z,42.00
2018-09-05T10:36:58.202Z,41.37
2018-09-05T10:39:38.074Z,40.37
2018-09-05T10:42:06.964Z,38.10
2018-09-05T10:44:35.604Z,37.90
2018-09-05T10:47:04.492Z,34.77
2018-09-05T10:49:33.167Z,38.93
2018-09-05T10:52:04.625Z,41.63
2018-09-05T10:54:33.400Z,38.17
2018-09-05T10:57:02.957Z,35.60
2018-09-05T10:59:31.639Z,35.83
2018-09-05T11:02:00.961Z,36.13
2018-09-05T11:04:29.583Z,34.10
2018-09-05T11:06:58.779Z,34.10
2018-09-05T11:09:27.462Z,32.97
2018-09-05T11:11:56.191Z,30.97
2018-09-05T11:14:24.778Z,30.60
2018-09-05T11:16:53.561Z,32.57
2018-09-05T11:19:22.291Z,34.40
2018-09-05T11:21:51.015Z,30.40
2018-09-05T11:24:19.682Z,30.17
2018-09-05T11:26:48.318Z,27.93
2018-09-05T11:29:16.922Z,32.23
2018-09-05T11:31:45.590Z,35.90
2018-09-05T11:34:14.391Z,27.33
2018-09-05T11:36:43.186Z,30.87
2018-09-05T11:39:13.518Z,25.70
2018-09-05T11:41:42.173Z,24.93
2018-09-05T11:44:10.861Z,28.67
2018-09-05T11:46:39.772Z,26.53
2018-09-05T11:49:09.071Z,26.83
2018-09-05T11:51:38.000Z,28.63
2018-09-05T11:54:07.403Z,27.30
2018-09-05T11:56:48.503Z,29.60
2018-09-05T11:59:17.228Z,29.60
2018-09-05T12:01:45.959Z,30.63
2018-09-05T12:04:14.649Z,29.47
2018-09-05T12:06:43.343Z,30.50
2018-09-05T12:09:12.846Z,30.27
2018-09-05T12:11:41.590Z,25.83
2018-09-05T12:14:10.618Z,27.73
2018-09-05T12:16:39.408Z,24.67
2018-09-05T12:19:08.401Z,30.30
2018-09-05T12:21:37.216Z,23.60
2018-09-05T12:24:06.785Z,20.10
2018-09-05T12:26:35.340Z,21.87
2018-09-05T12:29:06.589Z,22.53
2018-09-05T12:31:35.246Z,24.03
2018-09-05T12:34:03.886Z,20.93
2018-09-05T12:36:32.631Z,20.23
2018-09-05T12:39:01.308Z,20.27
2018-09-05T12:41:29.997Z,19.07
2018-09-05T12:43:58.637Z,19.03
2018-09-05T12:46:27.319Z,20.30
2018-09-05T12:48:57.136Z,16.40
2018-09-05T12:51:25.872Z,19.37
2018-09-05T12:53:54.899Z,17.27
2018-09-05T12:56:23.352Z,22.37
2018-09-05T12:58:52.186Z,22.50
2018-09-05T13:01:20.912Z,23.00
2018-09-05T13:03:49.712Z,19.73
2018-09-05T13:06:18.524Z,25.60
2018-09-05T13:08:47.159Z,22.43
2018-09-05T13:11:15.928Z,23.30
2018-09-05T13:13:44.646Z,25.30
2018-09-05T13:16:13.243Z,24.80
2018-09-05T13:18:42.075Z,22.00
2018-09-05T13:21:10.770Z,24.13
2018-09-05T13:23:39.589Z,24.87
2018-09-05T13:26:08.435Z,24.27
2018-09-05T13:28:37.134Z,21.80
2018-09-05T13:31:06.028Z,23.00
2018-09-05T13:33:34.786Z,19.87
2018-09-05T13:36:03.612Z,20.50
2018-09-05T13:38:32.433Z,26.13
2018-09-05T13:41:01.224Z,25.50
2018-09-05T13:43:30.028Z,21.93
2018-09-05T13:45:58.780Z,23.00
2018-09-05T13:48:27.497Z,24.23
2018-09-05T13:50:56.268Z,19.97
2018-09-05T13:53:25.062Z,26.50
2018-09-05T13:55:53.998Z,20.00
2018-09-05T13:58:22.783Z,22.77
2018-09-05T14:00:51.758Z,21.70
2018-09-05T14:03:21.105Z,19.03
2018-09-05T14:05:49.899Z,20.93
2018-09-05T14:08:18.907Z,20.73
2018-09-05T14:10:47.586Z,20.33
2018-09-05T14:13:16.149Z,19.53
2018-09-05T14:15:44.933Z,24.70
2018-09-05T14:18:13.673Z,23.40
2018-09-05T14:20:42.655Z,21.97
2018-09-05T14:23:11.529Z,19.90
2018-09-05T14:25:40.347Z,21.27
2018-09-05T14:28:09.238Z,23.67
2018-09-05T14:30:38.914Z,21.80
2018-09-05T14:33:07.692Z,20.97
2018-09-05T14:35:36.539Z,21.67
2018-09-05T14:38:05.449Z,20.10
2018-09-05T14:40:34.231Z,21.53
2018-09-05T14:43:02.997Z,21.60
2018-09-05T14:45:31.913Z,21.63
2018-09-05T14:48:00.711Z,20.03
2018-09-05T14:50:30.441Z,18.63
2018-09-05T14:52:59.407Z,23.23
2018-09-05T14:55:29.222Z,21.90
2018-09-05T14:57:59.083Z,19.90
2018-09-05T15:00:29.020Z,23.67
2018-09-05T15:02:59.192Z,24.00
2018-09-05T15:05:29.631Z,24.87
2018-09-05T15:07:59.240Z,23.57
2018-09-05T15:10:28.372Z,21.27
2018-09-05T15:12:57.686Z,23.67
2018-09-05T15:15:26.663Z,20.77
2018-09-05T15:17:57.206Z,22.37
2018-09-05T15:20:27.267Z,22.50
2018-09-05T15:23:01.870Z,22.57
2018-09-05T15:25:30.699Z,22.67
2018-09-05T15:27:59.442Z,19.90
2018-09-05T15:30:30.661Z,23.77
2018-09-05T15:32:59.565Z,22.40
2018-09-05T15:35:28.492Z,19.60
2018-09-05T15:37:57.229Z,21.50
2018-09-05T15:40:26.647Z,22.17
2018-09-05T15:42:55.325Z,21.83
2018-09-05T15:45:24.668Z,21.57
2018-09-05T15:47:54.615Z,21.33
2018-09-05T15:50:23.508Z,19.75
2018-09-05T15:52:54.007Z,19.15
2018-09-05T15:55:23.725Z,24.10
2018-09-05T15:57:52.506Z,20.02
2018-09-05T16:00:22.784Z,16.82
2018-09-05T16:02:51.725Z,20.57
2018-09-05T16:05:20.860Z,18.80
2018-09-05T16:07:49.905Z,18.87
2018-09-05T16:10:20.251Z,17.10
2018-09-05T16:12:49.746Z,22.87
2018-09-05T16:15:18.834Z,17.97
2018-09-05T16:17:47.655Z,16.10
2018-09-05T16:20:17.859Z,17.73
2018-09-05T16:22:49.407Z,19.90
2018-09-05T16:27:55.826Z,18.43
2018-09-05T16:30:26.017Z,19.17
2018-09-05T16:32:59.011Z,16.43
2018-09-05T16:35:28.093Z,16.83
2018-09-05T16:38:06.968Z,15.30
2018-09-05T16:40:42.592Z,18.90
2018-09-05T16:43:11.934Z,19.13
2018-09-05T16:45:41.089Z,14.90
2018-09-05T16:48:10.119Z,16.70
2018-09-05T16:50:39.827Z,16.13
2018-09-05T16:53:17.328Z,15.37
2018-09-05T16:55:47.396Z,16.20
2018-09-05T16:58:16.827Z,17.70
2018-09-05T17:00:46.801Z,16.17
2018-09-05T17:03:16.071Z,13.20
2018-09-05T17:05:45.449Z,14.77
2018-09-05T17:08:29.245Z,13.13
2018-09-05T17:10:58.397Z,14.20
2018-09-05T17:13:28.662Z,13.73
2018-09-05T17:15:57.485Z,14.10
2018-09-05T17:18:26.409Z,13.10
2018-09-05T17:20:56.283Z,15.07
2018-09-05T17:23:25.093Z,15.50
2018-09-05T17:25:53.893Z,14.47
2018-09-05T17:28:22.675Z,15.03
2018-09-05T17:30:51.480Z,13.57
2018-09-05T17:33:20.195Z,12.77
2018-09-05T17:35:48.919Z,14.90
2018-09-05T17:38:17.892Z,19.20
2018-09-05T17:40:46.648Z,13.23
2018-09-05T17:43:15.409Z,13.37
2018-09-05T17:45:44.174Z,13.40
2018-09-05T17:48:13.019Z,14.50
2018-09-05T17:50:41.789Z,14.90
2018-09-05T17:53:10.431Z,14.63
2018-09-05T17:55:39.282Z,14.23
2018-09-05T17:58:08.237Z,12.90
2018-09-05T18:00:37.182Z,17.23
2018-09-05T18:03:05.884Z,15.13
2018-09-05T18:05:34.679Z,12.73
2018-09-05T18:08:03.544Z,13.47
2018-09-05T18:10:32.248Z,14.27
2018-09-05T18:13:01.063Z,14.17
2018-09-05T18:15:29.700Z,14.97
2018-09-05T18:17:58.470Z,15.77
2018-09-05T18:20:27.659Z,13.27
2018-09-05T18:22:57.434Z,16.07
2018-09-05T18:25:26.236Z,15.47
2018-09-05T18:27:55.004Z,13.23
2018-09-05T18:30:23.855Z,14.67
2018-09-05T18:32:52.713Z,15.00
2018-09-05T18:35:21.571Z,14.50
2018-09-05T18:37:50.973Z,18.93
2018-09-05T18:40:20.168Z,15.20
2018-09-05T18:42:49.030Z,15.20
2018-09-05T18:45:19.414Z,16.73
2018-09-05T18:47:48.261Z,13.80
2018-09-05T18:50:18.022Z,15.07
2018-09-05T18:52:47.910Z,13.20
2018-09-05T18:55:22.196Z,13.47
2018-09-05T18:57:52.204Z,12.67
2018-09-05T19:00:22.364Z,15.47
2018-09-05T19:02:51.130Z,12.37
2018-09-05T19:05:20.226Z,14.13
2018-09-05T19:07:49.084Z,11.70
2018-09-05T19:10:17.973Z,12.27
2018-09-05T19:12:47.131Z,13.10
2018-09-05T19:15:16.049Z,12.30
2018-09-05T19:17:46.183Z,12.47
2018-09-05T19:20:15.134Z,11.50
2018-09-05T19:22:44.123Z,10.43
2018-09-05T19:25:12.950Z,11.50
2018-09-05T19:27:41.799Z,15.00
2018-09-05T19:30:10.771Z,13.77
2018-09-05T19:32:39.632Z,11.50
2018-09-05T19:35:09.340Z,11.57
2018-09-05T19:37:38.619Z,11.37
2018-09-05T19:40:08.028Z,12.67
2018-09-05T19:42:37.714Z,10.37
2018-09-05T19:45:07.666Z,13.87
2018-09-05T19:47:36.515Z,11.67
2018-09-05T19:50:06.343Z,13.27
2018-09-05T19:52:35.636Z,13.90
2018-09-05T19:55:04.552Z,12.20
2018-09-05T19:57:33.452Z,11.97
2018-09-05T20:00:02.389Z,12.27
2018-09-05T20:02:31.791Z,13.63
2018-09-05T20:05:00.665Z,13.37
2018-09-05T20:07:29.568Z,14.17
2018-09-05T20:09:58.934Z,14.03
2018-09-05T20:12:28.444Z,12.83
2018-09-05T20:14:57.725Z,11.53
2018-09-05T20:17:26.689Z,12.17
2018-09-05T20:19:55.511Z,12.13
2018-09-05T20:22:24.952Z,11.33
2018-09-05T20:24:53.869Z,12.40
2018-09-05T20:27:22.819Z,13.20
2018-09-05T20:29:51.734Z,12.30
2018-09-05T20:32:20.674Z,13.10
2018-09-05T20:34:49.996Z,12.00
2018-09-05T20:37:18.914Z,11.70
2018-09-05T20:39:48.813Z,13.07
2018-09-05T20:42:17.673Z,11.13
2018-09-05T20:44:46.650Z,13.60
2018-09-05T20:47:15.517Z,14.23
2018-09-05T20:49:44.421Z,14.97
2018-09-05T20:52:15.596Z,13.13
2018-09-05T20:54:44.620Z,13.33
2018-09-05T20:57:13.799Z,15.77
2018-09-05T20:59:42.746Z,12.90
2018-09-05T21:02:11.642Z,11.97
2018-09-05T21:04:40.421Z,12.70
2018-09-05T21:07:09.104Z,14.40
2018-09-05T21:09:37.841Z,12.97
2018-09-05T21:12:06.524Z,16.20
2018-09-05T21:14:35.244Z,13.17
2018-09-05T21:17:04.057Z,14.67
2018-09-05T21:19:32.829Z,14.30
2018-09-05T21:22:01.580Z,14.97
2018-09-05T21:24:30.279Z,13.07
2018-09-05T21:26:59.011Z,13.47
2018-09-05T21:29:27.777Z,13.07
2018-09-05T21:31:56.533Z,12.67
2018-09-05T21:34:25.363Z,15.03
2018-09-05T21:36:54.157Z,12.77
2018-09-05T21:39:22.903Z,13.13
2018-09-05T21:41:51.595Z,11.60
2018-09-05T21:44:20.306Z,14.33
2018-09-05T21:46:49.088Z,14.07
2018-09-05T21:49:17.791Z,12.73
2018-09-05T21:51:46.606Z,13.77
2018-09-05T21:54:15.327Z,13.47
2018-09-05T21:56:44.158Z,13.73
2018-09-05T21:59:12.934Z,14.47
2018-09-05T22:01:42.544Z,12.67
2018-09-05T22:04:11.252Z,12.77
2018-09-05T22:06:39.975Z,12.20
2018-09-05T22:09:10.452Z,12.63
2018-09-05T22:11:39.271Z,12.07
2018-09-05T22:14:07.895Z,13.30
2018-09-05T22:16:36.643Z,11.27
2018-09-05T22:19:05.433Z,13.77
2018-09-05T22:21:34.077Z,11.73
2018-09-05T22:24:02.973Z,14.00
2018-09-05T22:26:31.752Z,13.77
2018-09-05T22:29:00.354Z,16.37
2018-09-05T22:31:29.003Z,17.13
2018-09-05T22:33:57.614Z,18.50
2018-09-05T22:36:26.269Z,19.77
2018-09-05T22:38:54.924Z,19.93
2018-09-05T22:41:23.628Z,23.03
2018-09-05T22:44:03.528Z,21.87
2018-09-05T22:46:43.387Z,22.63
2018-09-05T22:51:32.810Z,22.37
2018-09-05T22:54:16.025Z,26.47
2018-09-05T22:56:59.407Z,25.90
2018-09-05T23:01:57.400Z,27.97
2018-09-05T23:04:52.301Z,29.73
2018-09-05T23:07:32.130Z,27.73
2018-09-05T23:10:12.423Z,29.83
2018-09-05T23:12:52.225Z,34.63
2018-09-05T23:15:32.011Z,34.30
2018-09-05T23:18:19.379Z,34.73
2018-09-05T23:21:27.295Z,31.83
2018-09-05T23:24:08.185Z,34.20
2018-09-05T23:26:36.811Z,33.77
2018-09-05T23:29:06.415Z,30.80
2018-09-05T23:31:35.103Z,32.93
2018-09-05T23:34:03.845Z,31.90
2018-09-05T23:36:32.470Z,29.23
2018-09-05T23:39:01.856Z,32.47
2018-09-05T23:41:30.487Z,31.50
2018-09-05T23:43:59.190Z,33.30
2018-09-05T23:46:27.843Z,37.10
2018-09-05T23:48:56.522Z,34.57
2018-09-05T23:51:25.226Z,32.63
2018-09-05T23:53:53.939Z,34.03
2018-09-05T23:56:22.657Z,34.40
2018-09-05T23:58:51.362Z,33.23
